Time;durP1;ratioP1;P1;durP2;ratioP2;P2;SDS_P1;SDS_P2;PMS_P1;PMS_P2;Temp;Humidity;BMP_temperature;BMP_pressure;BME280_temperature;BME280_humidity;BME280_pressure;Samples;Min_cycle;Max_cycle;Signal;HPM_P1;HPM_P2
2022/01/18 00:01:59;;;;;;;72.40;54.17;;;17.20;51.90;;;;;;4985970;28;95679;-72
2022/01/18 00:04:27;;;;;;;71.05;53.67;;;17.20;51.80;;;;;;4981660;28;95997;-71
2022/01/18 00:06:53;;;;;;;72.05;53.53;;;17.20;52.00;;;;;;4986112;28;95349;-72
2022/01/18 00:09:23;;;;;;;74.57;54.13;;;17.20;52.40;;;;;;4990689;28;95286;-72
2022/01/18 00:11:58;;;;;;;74.05;53.97;;;17.20;51.80;;;;;;4988801;28;95097;-72
2022/01/18 00:14:39;;;;;;;74.43;54.13;;;17.10;51.70;;;;;;4980678;28;95429;-72
2022/01/18 00:17:16;;;;;;;72.75;54.28;;;17.10;51.80;;;;;;4979469;28;97032;-72
2022/01/18 00:19:51;;;;;;;72.40;53.65;;;17.10;51.70;;;;;;4982934;28;94229;-71
2022/01/18 00:22:18;;;;;;;71.50;53.15;;;17.10;51.80;;;;;;4983610;28;93760;-71
2022/01/18 00:24:44;;;;;;;71.05;53.72;;;17.10;51.80;;;;;;4975392;28;94569;-71
2022/01/18 00:27:14;;;;;;;72.13;54.10;;;17.10;51.90;;;;;;4987817;28;95179;-71
2022/01/18 00:29:49;;;;;;;74.03;54.10;;;17.10;51.70;;;;;;4987189;28;96151;-72
2022/01/18 00:32:30;;;;;;;70.97;53.42;;;17.10;51.80;;;;;;4970619;28;95312;-71
2022/01/18 00:34:56;;;;;;;70.13;53.53;;;17.10;51.90;;;;;;4982984;28;94851;-72
2022/01/18 00:37:27;;;;;;;72.32;54.03;;;17.10;51.80;;;;;;4982401;28;96119;-72
2022/01/18 00:39:53;;;;;;;69.45;53.35;;;17.10;51.90;;;;;;4969264;28;94471;-71
2022/01/18 00:42:19;;;;;;;70.95;53.65;;;17.10;51.70;;;;;;4988567;28;97462;-72
2022/01/18 00:44:45;;;;;;;72.65;53.95;;;17.00;51.80;;;;;;4957410;28;95226;-72
2022/01/18 00:47:10;;;;;;;69.90;53.00;;;17.00;51.90;;;;;;4984609;28;95467;-72
2022/01/18 00:49:42;;;;;;;71.47;53.65;;;17.00;51.80;;;;;;4993940;28;96112;-72
2022/01/18 00:52:08;;;;;;;70.80;53.85;;;17.00;51.70;;;;;;4989593;28;96569;-72
2022/01/18 00:54:39;;;;;;;73.82;53.13;;;17.00;51.80;;;;;;4989825;28;96789;-71
2022/01/18 00:57:06;;;;;;;71.10;53.80;;;17.00;52.00;;;;;;4990456;28;95090;-72
2022/01/18 00:59:32;;;;;;;71.50;53.10;;;16.90;51.80;;;;;;4982161;28;95995;-71
2022/01/18 01:01:58;;;;;;;69.82;53.13;;;16.90;51.90;;;;;;4986320;28;95202;-72
2022/01/18 01:04:27;;;;;;;72.30;53.85;;;16.90;51.90;;;;;;4963711;28;100503;-71
2022/01/18 01:06:53;;;;;;;70.80;53.40;;;16.90;51.80;;;;;;4991238;28;94646;-72
2022/01/18 01:09:18;;;;;;;69.47;52.88;;;16.90;52.00;;;;;;4986770;28;95831;-72
2022/01/18 01:11:44;;;;;;;71.03;53.85;;;16.80;52.20;;;;;;4985464;28;94548;-72
2022/01/18 01:14:16;;;;;;;70.18;53.05;;;16.80;52.10;;;;;;4981687;28;95647;-72
2022/01/18 01:16:58;;;;;;;70.40;53.60;;;16.80;52.30;;;;;;4984719;28;94954;-71
2022/01/18 01:33:54;;;;;;;70.68;53.35;;;16.90;52.20;;;;;;4978757;27;96279;-72
2022/01/18 01:44:20;;;;;;;69.72;53.38;;;16.80;52.00;;;;;;5001761;27;95106;-71
2022/01/18 01:46:46;;;;;;;69.30;52.90;;;16.80;52.20;;;;;;5007612;27;96358;-71
2022/01/18 01:49:14;;;;;;;68.88;52.75;;;16.80;52.00;;;;;;5003728;27;94406;-72
2022/01/18 01:51:42;;;;;;;70.13;53.05;;;16.80;51.80;;;;;;5004351;27;94946;-72
2022/01/18 01:54:20;;;;;;;69.20;52.75;;;16.80;51.90;;;;;;655690;28;10096741;-71
2022/01/18 01:56:46;;;;;;;70.43;53.10;;;16.80;52.00;;;;;;4992942;27;95101;-71
2022/01/18 01:59:12;;;;;;;69.60;52.75;;;16.80;52.00;;;;;;5000807;27;95311;-71
2022/01/18 02:01:40;;;;;;;70.38;52.67;;;16.80;52.00;;;;;;4988424;28;97337;-72
2022/01/18 02:04:05;;;;;;;70.15;52.58;;;16.80;51.80;;;;;;5006479;27;93473;-72
2022/01/18 02:06:31;;;;;;;70.60;52.88;;;16.80;52.10;;;;;;5003418;27;94689;-72
2022/01/18 02:08:56;;;;;;;70.85;52.75;;;16.80;52.00;;;;;;5004630;27;95101;-72
2022/01/18 02:11:22;;;;;;;69.28;52.80;;;16.80;51.90;;;;;;5001412;27;97181;-72
2022/01/18 02:13:49;;;;;;;70.65;53.30;;;16.80;52.00;;;;;;4995527;27;94068;-72
2022/01/18 02:21:45;;;;;;;69.45;53.05;;;16.80;51.90;;;;;;5006735;27;97053;-71
2022/01/18 02:21:48;;;;;;;70.65;53.15;;;16.80;52.00;;;;;;5004903;27;95702;-71
2022/01/18 02:24:16;;;;;;;69.53;52.92;;;16.80;52.00;;;;;;5010763;27;94946;-71
2022/01/18 02:26:42;;;;;;;69.88;53.17;;;16.80;52.00;;;;;;4998996;27;94851;-71
2022/01/18 02:29:09;;;;;;;68.00;52.15;;;16.80;51.80;;;;;;4993386;27;94746;-71
2022/01/18 02:31:36;;;;;;;69.50;52.55;;;16.80;52.00;;;;;;4979045;28;95235;-72
2022/01/18 02:34:08;;;;;;;68.82;52.40;;;16.70;51.80;;;;;;4986707;28;94325;-71
2022/01/18 02:36:34;;;;;;;69.80;52.97;;;16.70;51.80;;;;;;4981238;28;97048;-71
2022/01/18 02:38:59;;;;;;;70.30;52.72;;;16.80;51.90;;;;;;4983384;28;94904;-71
2022/01/18 02:41:31;;;;;;;70.20;52.75;;;16.70;52.00;;;;;;4985139;28;95245;-71
2022/01/18 02:43:59;;;;;;;68.90;52.57;;;16.80;51.80;;;;;;4986020;28;96527;-71
2022/01/18 02:46:25;;;;;;;68.07;52.70;;;16.80;51.90;;;;;;4982408;28;99281;-72
2022/01/18 02:48:51;;;;;;;68.97;52.55;;;16.80;52.00;;;;;;4970164;28;95404;-71
2022/01/18 02:51:16;;;;;;;68.65;52.88;;;16.80;52.00;;;;;;4976676;28;94803;-71
2022/01/18 02:53:58;;;;;;;69.32;52.47;;;16.80;52.10;;;;;;4984841;28;94756;-71
2022/01/18 02:56:29;;;;;;;68.68;52.55;;;16.70;52.00;;;;;;4976993;28;94404;-72
2022/01/18 02:59:03;;;;;;;68.60;52.50;;;16.70;51.90;;;;;;4977833;28;95551;-71
2022/01/18 03:04:14;;;;;;;69.50;52.28;;;16.70;51.90;;;;;;4983015;28;96589;-71
2022/01/18 03:06:40;;;;;;;70.40;52.92;;;16.70;51.90;;;;;;4981109;28;98320;-71
2022/01/18 03:09:05;;;;;;;69.38;52.60;;;16.70;52.20;;;;;;4981943;28;95103;-72
2022/01/18 03:11:31;;;;;;;68.70;52.42;;;16.70;52.00;;;;;;4983465;28;95576;-72
2022/01/18 03:13:57;;;;;;;67.65;52.28;;;16.70;51.90;;;;;;4979261;28;95318;-72
2022/01/18 03:16:23;;;;;;;68.43;52.25;;;16.70;51.70;;;;;;4957711;28;95009;-72
2022/01/18 03:18:49;;;;;;;68.32;52.35;;;16.80;52.00;;;;;;4985161;28;95263;-71
2022/01/18 03:21:14;;;;;;;68.10;52.25;;;16.80;51.90;;;;;;4981777;28;100458;-72
2022/01/18 03:23:40;;;;;;;68.78;52.22;;;16.80;51.80;;;;;;4980367;28;94889;-71
2022/01/18 03:26:14;;;;;;;67.82;51.75;;;16.80;51.80;;;;;;4984559;28;96028;-72
2022/01/18 03:28:40;;;;;;;69.35;52.25;;;16.80;51.70;;;;;;4967977;27;97596;-71
2022/01/18 03:31:06;;;;;;;68.40;52.17;;;16.80;51.80;;;;;;5006110;27;95578;-72
2022/01/18 03:33:32;;;;;;;68.93;51.97;;;16.80;51.80;;;;;;5009000;27;94578;-72
2022/01/18 03:35:57;;;;;;;68.35;52.50;;;16.80;51.70;;;;;;4991723;28;101560;-71
2022/01/18 03:38:30;;;;;;;69.85;52.40;;;16.80;51.80;;;;;;5010817;27;97496;-71
2022/01/18 03:41:06;;;;;;;68.60;52.65;;;16.80;51.90;;;;;;5004011;27;99367;-72
2022/01/18 03:43:35;;;;;;;68.80;52.13;;;16.80;51.90;;;;;;4998396;27;94312;-72
2022/01/18 03:46:02;;;;;;;68.22;51.90;;;16.80;51.70;;;;;;5008457;27;101797;-71
2022/01/18 03:48:33;;;;;;;68.10;52.20;;;16.70;51.80;;;;;;5007982;27;94928;-71
2022/01/18 03:51:01;;;;;;;67.88;51.80;;;16.70;52.00;;;;;;5008753;27;95838;-71
2022/01/18 03:53:27;;;;;;;68.45;52.42;;;16.70;51.90;;;;;;5011556;27;95025;-71
2022/01/18 03:55:54;;;;;;;67.25;52.10;;;16.70;51.80;;;;;;5010743;27;95040;-71
2022/01/18 03:58:20;;;;;;;68.88;51.83;;;16.70;51.80;;;;;;5004467;27;96093;-71
2022/01/18 04:00:46;;;;;;;67.70;51.63;;;16.70;51.70;;;;;;5001288;27;101369;-71
2022/01/18 04:03:12;;;;;;;67.68;51.70;;;16.70;51.60;;;;;;5021439;27;96788;-71
2022/01/18 04:05:38;;;;;;;68.15;51.75;;;16.70;51.60;;;;;;5015397;27;97009;-71
2022/01/18 04:08:04;;;;;;;67.60;51.50;;;16.70;51.80;;;;;;5005873;27;95047;-71
2022/01/18 04:10:30;;;;;;;68.72;52.33;;;16.70;52.00;;;;;;5012094;27;95383;-71
2022/01/18 04:12:56;;;;;;;69.45;52.65;;;16.60;52.00;;;;;;4998695;27;94740;-72
2022/01/18 04:15:23;;;;;;;69.20;52.35;;;16.60;52.00;;;;;;5011407;27;95796;-71
2022/01/18 04:18:20;;;;;;;68.40;51.88;;;16.60;51.80;;;;;;5008717;27;94726;-71
2022/01/18 04:28:56;;;;;;;67.80;51.33;;;16.60;52.10;;;;;;5010691;27;95333;-72
2022/01/18 04:31:23;;;;;;;66.95;51.47;;;16.50;52.10;;;;;;5008066;27;98005;-71
2022/01/18 04:33:49;;;;;;;69.28;52.00;;;16.50;52.30;;;;;;5009395;27;94760;-71
2022/01/18 04:36:15;;;;;;;67.70;51.92;;;16.60;52.40;;;;;;5010235;27;95516;-72
2022/01/18 04:38:41;;;;;;;68.47;51.70;;;16.50;52.90;;;;;;5009212;27;96383;-71
2022/01/18 04:41:12;;;;;;;67.70;51.85;;;16.50;52.20;;;;;;4999570;27;97402;-71
2022/01/18 04:43:51;;;;;;;67.78;51.67;;;16.50;52.40;;;;;;5009707;27;95850;-71
2022/01/18 04:49:03;;;;;;;67.45;51.65;;;16.60;52.40;;;;;;5012981;27;94264;-71
2022/01/18 04:51:29;;;;;;;67.55;51.67;;;16.50;52.20;;;;;;5005757;27;95386;-71
2022/01/18 04:53:57;;;;;;;67.50;52.15;;;16.60;52.40;;;;;;5013022;27;95566;-71
2022/01/18 04:59:17;;;;;;;66.75;51.40;;;16.60;52.30;;;;;;4989808;27;94488;-71
2022/01/18 05:01:49;;;;;;;68.55;51.83;;;16.60;52.40;;;;;;5011898;27;96447;-71
2022/01/18 05:04:15;;;;;;;68.43;52.10;;;16.50;52.30;;;;;;5008745;27;96023;-72
2022/01/18 05:06:42;;;;;;;69.25;52.20;;;16.50;52.40;;;;;;5008957;27;95960;-71
2022/01/18 05:09:10;;;;;;;67.03;51.92;;;16.50;52.20;;;;;;5001880;27;96998;-71
2022/01/18 05:11:44;;;;;;;67.05;51.53;;;16.50;52.30;;;;;;5001712;27;95529;-71
2022/01/18 05:22:58;;;;;;;66.57;51.58;;;16.60;52.60;;;;;;5006753;27;95624;-71
2022/01/18 05:24:20;;;;;;;67.93;51.28;;;16.60;52.60;;;;;;5004413;27;94646;-72
2022/01/18 05:26:46;;;;;;;68.07;51.80;;;16.70;52.50;;;;;;5010523;27;96242;-72
2022/01/18 05:29:11;;;;;;;67.28;51.47;;;16.90;52.60;;;;;;5011900;27;94946;-71
2022/01/18 05:31:38;;;;;;;68.72;51.67;;;16.90;52.70;;;;;;5002811;27;95853;-71
2022/01/18 05:34:03;;;;;;;68.63;51.75;;;17.00;52.50;;;;;;5007761;27;95739;-71
2022/01/18 05:36:29;;;;;;;68.38;51.70;;;17.20;52.40;;;;;;5009264;27;94777;-72
2022/01/18 05:38:55;;;;;;;68.35;52.05;;;17.30;51.90;;;;;;5012492;27;95864;-72
2022/01/18 05:41:20;;;;;;;69.20;51.85;;;17.40;52.00;;;;;;4998618;27;96224;-72
2022/01/18 05:43:46;;;;;;;69.35;51.58;;;17.60;51.70;;;;;;4990958;27;95194;-72
2022/01/18 05:46:12;;;;;;;67.65;51.58;;;17.70;51.10;;;;;;4999499;27;99313;-72
2022/01/18 05:48:38;;;;;;;69.55;51.92;;;17.90;51.20;;;;;;5011125;27;93794;-71
2022/01/18 05:51:04;;;;;;;69.07;51.35;;;18.00;50.90;;;;;;5007772;27;94806;-71
2022/01/18 05:53:31;;;;;;;68.00;51.55;;;18.10;50.70;;;;;;5004620;27;96134;-72
2022/01/18 05:55:58;;;;;;;70.20;51.65;;;18.20;50.30;;;;;;5003784;27;97929;-72
2022/01/18 05:58:24;;;;;;;67.60;52.00;;;18.30;49.90;;;;;;5011736;27;97054;-71
2022/01/18 06:00:52;;;;;;;69.75;51.67;;;18.40;49.80;;;;;;5006095;27;100316;-72
2022/01/18 06:03:35;;;;;;;69.13;51.25;;;18.50;49.80;;;;;;5007666;27;96084;-72
2022/01/18 06:08:45;;;;;;;66.82;50.97;;;18.60;49.50;;;;;;4997121;27;94639;-73
2022/01/18 06:11:11;;;;;;;67.97;51.38;;;18.60;49.40;;;;;;4998137;27;96804;-73
2022/01/18 06:13:37;;;;;;;69.97;51.80;;;18.70;49.00;;;;;;4998216;27;94959;-73
2022/01/18 06:16:03;;;;;;;69.47;51.80;;;18.70;49.40;;;;;;5007902;27;95486;-74
2022/01/18 06:18:28;;;;;;;70.85;51.63;;;18.70;49.00;;;;;;5006096;27;96135;-73
2022/01/18 06:20:54;;;;;;;71.93;52.05;;;18.70;49.30;;;;;;5006041;27;95875;-73
2022/01/18 06:23:21;;;;;;;70.70;51.80;;;18.70;49.30;;;;;;5011719;27;96923;-74
2022/01/18 06:25:47;;;;;;;69.22;51.70;;;18.80;49.20;;;;;;5008612;27;95600;-73
2022/01/18 06:28:13;;;;;;;69.32;51.75;;;18.80;49.00;;;;;;5012872;27;95449;-74
2022/01/18 06:30:39;;;;;;;74.35;51.92;;;18.70;49.10;;;;;;4988687;27;95073;-73
2022/01/18 06:33:05;;;;;;;71.53;52.03;;;18.70;49.00;;;;;;5004882;27;95853;-73
2022/01/18 06:35:30;;;;;;;72.10;51.75;;;18.70;49.00;;;;;;5005260;27;94696;-73
2022/01/18 06:37:56;;;;;;;72.20;51.53;;;18.70;49.10;;;;;;5000718;27;94052;-73
2022/01/18 06:40:22;;;;;;;73.32;52.08;;;18.70;49.20;;;;;;5005042;27;97101;-73
2022/01/18 06:42:48;;;;;;;70.65;51.38;;;18.70;49.20;;;;;;4998206;27;98087;-73
2022/01/18 06:45:15;;;;;;;70.97;51.60;;;18.60;49.30;;;;;;4975189;27;96604;-73
2022/01/18 06:47:41;;;;;;;70.95;52.13;;;18.60;49.40;;;;;;5011194;27;95752;-73
2022/01/18 06:50:09;;;;;;;78.32;52.83;;;18.60;49.40;;;;;;4988215;27;96594;-73
2022/01/18 06:52:46;;;;;;;68.90;47.78;;;18.60;49.50;;;;;;3403058;27;10116822;-73
2022/01/18 06:55:12;;;;;;;73.43;53.42;;;18.60;49.60;;;;;;2220609;27;10096919;-73
2022/01/18 06:57:38;;;;;;;73.05;53.20;;;18.60;49.90;;;;;;4996808;27;97484;-73
2022/01/18 07:00:05;;;;;;;75.15;53.63;;;18.60;50.30;;;;;;5001135;27;102052;-70
2022/01/18 07:02:31;;;;;;;75.07;53.97;;;18.60;50.50;;;;;;5003282;27;94751;-73
2022/01/18 07:04:56;;;;;;;77.07;53.65;;;18.70;51.20;;;;;;5001974;27;96473;-74
2022/01/18 07:07:23;;;;;;;75.32;53.97;;;18.70;50.90;;;;;;5011273;27;95243;-75
2022/01/18 07:09:49;;;;;;;78.10;54.38;;;18.80;50.70;;;;;;5007429;27;95740;-74
2022/01/18 07:12:15;;;;;;;75.82;53.70;;;18.90;50.60;;;;;;5000805;27;96134;-75
2022/01/18 07:14:42;;;;;;;76.10;53.85;;;18.80;50.20;;;;;;5012099;27;94658;-74
2022/01/18 07:17:08;;;;;;;76.22;54.65;;;18.80;50.50;;;;;;5003598;27;99510;-74
2022/01/18 07:19:35;;;;;;;73.90;53.72;;;18.80;50.70;;;;;;5009174;27;96914;-74
2022/01/18 07:22:01;;;;;;;76.95;53.70;;;18.80;50.60;;;;;;5008062;27;95188;-74
2022/01/18 07:24:42;;;;;;;74.57;53.33;;;18.70;50.40;;;;;;5012044;27;94922;-74
2022/01/18 07:27:10;;;;;;;;;;;18.70;50.60;;;;;;5004309;27;94528;-75
2022/01/18 07:29:36;;;;;;;74.28;53.72;;;18.70;50.80;;;;;;5008354;27;97506;-74
2022/01/18 07:32:02;;;;;;;73.47;52.80;;;18.70;50.60;;;;;;5012520;27;94575;-73
2022/01/18 07:34:30;;;;;;;75.15;54.22;;;18.70;50.60;;;;;;5013884;27;95642;-75
2022/01/18 07:36:56;;;;;;;76.32;53.70;;;18.70;50.40;;;;;;5015648;27;95148;-75
2022/01/18 07:39:23;;;;;;;78.03;53.90;;;18.70;50.60;;;;;;5014578;27;99332;-74
2022/01/18 07:41:48;;;;;;;77.60;54.05;;;18.80;50.80;;;;;;5011671;27;95175;-75
2022/01/18 07:44:14;;;;;;;78.60;53.75;;;18.90;51.00;;;;;;5010190;27;95523;-75
2022/01/18 07:46:40;;;;;;;81.30;53.88;;;18.90;50.80;;;;;;5010036;27;96461;-74
2022/01/18 07:49:05;;;;;;;78.95;54.15;;;19.00;50.70;;;;;;5014220;27;96039;-75
2022/01/18 07:51:33;;;;;;;82.53;54.67;;;19.10;50.80;;;;;;5016922;27;99175;-76
2022/01/18 07:53:59;;;;;;;77.28;54.50;;;19.10;50.60;;;;;;4995492;27;95099;-76
2022/01/18 07:56:24;;;;;;;78.60;54.50;;;19.10;50.40;;;;;;5012102;27;96220;-76
2022/01/18 07:58:50;;;;;;;77.40;54.92;;;19.10;50.40;;;;;;5016656;27;97697;-76
2022/01/18 08:01:16;;;;;;;77.90;54.80;;;19.10;50.20;;;;;;5012901;27;95714;-77
2022/01/18 08:03:41;;;;;;;80.60;54.47;;;19.20;50.20;;;;;;5017400;27;95769;-76
2022/01/18 08:06:07;;;;;;;74.47;54.15;;;19.10;50.00;;;;;;5022906;27;98317;-74
2022/01/18 08:08:33;;;;;;;77.10;54.85;;;19.10;50.00;;;;;;5004856;27;95095;-74
2022/01/18 08:10:59;;;;;;;79.00;54.90;;;19.10;50.00;;;;;;5000074;27;98858;-76
2022/01/18 08:13:34;;;;;;;76.72;54.45;;;19.10;49.80;;;;;;5014758;27;95646;-77
2022/01/18 08:16:20;;;;;;;72.97;53.55;;;19.10;49.70;;;;;;5003946;27;94763;-76
2022/01/18 08:18:45;;;;;;;81.70;53.97;;;19.10;49.80;;;;;;5012452;27;95907;-77
2022/01/18 08:21:10;;;;;;;77.38;54.30;;;19.10;50.40;;;;;;5015583;27;95201;-76
2022/01/18 08:23:36;;;;;;;73.95;53.83;;;19.10;50.00;;;;;;5019247;27;96432;-76
2022/01/18 08:26:02;;;;;;;75.30;53.72;;;19.10;50.00;;;;;;5017265;27;94535;-76
2022/01/18 08:28:28;;;;;;;73.80;53.88;;;19.10;50.00;;;;;;5015096;27;94997;-76
2022/01/18 08:30:53;;;;;;;77.97;54.13;;;19.10;50.30;;;;;;5031164;27;95230;-75
2022/01/18 08:33:19;;;;;;;76.32;53.97;;;19.10;50.00;;;;;;5031424;27;95593;-75
2022/01/18 08:35:45;;;;;;;73.32;53.70;;;19.10;50.10;;;;;;5020822;27;96141;-73
2022/01/18 08:38:10;;;;;;;75.88;54.55;;;19.10;50.10;;;;;;5018022;27;96706;-74
2022/01/18 08:40:36;;;;;;;75.07;53.97;;;19.10;50.00;;;;;;5018039;27;95867;-74
2022/01/18 08:43:02;;;;;;;75.93;54.40;;;19.10;49.90;;;;;;5010207;27;95834;-76
2022/01/18 08:45:27;;;;;;;76.63;54.08;;;19.10;49.50;;;;;;5013389;27;94940;-76
2022/01/18 08:47:53;;;;;;;74.63;53.80;;;19.10;49.60;;;;;;5006228;27;96947;-76
2022/01/18 08:50:19;;;;;;;75.13;53.50;;;19.10;49.70;;;;;;5015084;27;96828;-76
2022/01/18 08:52:50;;;;;;;66.65;52.47;;;19.10;50.20;;;;;;5008663;27;96008;-76
2022/01/18 08:55:16;;;;;;;64.47;52.10;;;19.10;50.90;;;;;;5005054;27;97364;-75
2022/01/18 08:57:42;;;;;;;67.00;51.67;;;19.10;51.10;;;;;;5001788;27;96106;-75
2022/01/18 09:00:10;;;;;;;62.63;51.95;;;19.10;51.20;;;;;;5004457;27;96990;-76
2022/01/18 09:02:36;;;;;;;65.20;52.20;;;19.00;51.50;;;;;;4991787;27;95292;-73
2022/01/18 09:05:02;;;;;;;66.80;52.75;;;19.00;51.40;;;;;;4995316;27;96408;-77
2022/01/18 09:07:27;;;;;;;65.32;52.25;;;19.00;51.70;;;;;;5001580;27;95229;-74
2022/01/18 09:10:02;;;;;;;62.05;51.75;;;19.10;51.80;;;;;;5003466;27;96169;-73
2022/01/18 09:12:28;;;;;;;65.70;52.33;;;19.00;52.00;;;;;;5011190;27;96685;-74
2022/01/18 09:14:54;;;;;;;70.30;52.88;;;19.00;52.10;;;;;;5008235;27;95966;-73
2022/01/18 09:17:19;;;;;;;69.20;52.17;;;19.00;52.30;;;;;;5013485;27;95512;-72
2022/01/18 09:19:45;;;;;;;64.80;52.17;;;19.00;52.30;;;;;;5013827;27;95133;-73
2022/01/18 09:22:11;;;;;;;63.97;52.50;;;19.10;52.90;;;;;;4980535;27;99854;-74
2022/01/18 09:24:36;;;;;;;65.90;52.75;;;19.10;52.40;;;;;;5010375;27;96543;-70
2022/01/18 09:27:02;;;;;;;67.65;52.58;;;19.10;52.20;;;;;;5008490;27;95075;-71
2022/01/18 09:29:30;;;;;;;63.83;52.83;;;19.10;52.80;;;;;;5007926;27;94548;-71
2022/01/18 09:31:56;;;;;;;69.60;52.78;;;19.10;52.30;;;;;;4992940;27;96482;-72
2022/01/18 09:34:22;;;;;;;66.88;52.58;;;19.10;52.50;;;;;;4999215;27;96381;-72
2022/01/18 09:36:48;;;;;;;63.13;52.55;;;19.10;52.40;;;;;;5005026;27;99029;-73
2022/01/18 09:39:14;;;;;;;72.25;52.38;;;19.10;52.60;;;;;;5008648;27;95588;-72
2022/01/18 09:41:42;;;;;;;65.15;52.20;;;19.10;52.50;;;;;;5014696;27;95032;-72
2022/01/18 09:44:09;;;;;;;67.10;52.80;;;19.10;52.70;;;;;;5012942;27;95246;-71
2022/01/18 09:46:34;;;;;;;64.50;52.45;;;19.10;52.50;;;;;;5008541;27;96583;-70
2022/01/18 09:49:00;;;;;;;69.40;52.53;;;19.10;53.20;;;;;;5004231;27;95775;-71
2022/01/18 09:51:28;;;;;;;65.43;52.67;;;19.10;52.80;;;;;;5009208;27;95586;-71
2022/01/18 09:53:54;;;;;;;66.70;52.60;;;19.10;52.80;;;;;;5004075;27;95583;-72
2022/01/18 09:56:20;;;;;;;70.50;52.10;;;19.00;52.90;;;;;;5014323;27;95595;-70
2022/01/18 09:58:46;;;;;;;68.10;52.67;;;18.90;53.20;;;;;;5003866;27;96534;-69
2022/01/18 10:01:12;;;;;;;72.03;53.92;;;18.90;53.30;;;;;;5008567;27;95967;-70
2022/01/18 10:03:39;;;;;;;63.03;52.72;;;18.90;53.50;;;;;;5014632;27;95585;-70
2022/01/18 10:06:06;;;;;;;65.03;52.45;;;18.90;53.40;;;;;;5007202;27;95202;-71
2022/01/18 10:08:33;;;;;;;65.47;52.70;;;18.90;53.60;;;;;;4993409;27;95634;-70
2022/01/18 10:11:02;;;;;;;72.15;53.45;;;18.90;53.40;;;;;;5016587;27;95332;-70
2022/01/18 10:13:34;;;;;;;67.47;53.03;;;18.90;53.80;;;;;;5001236;27;99646;-70
2022/01/18 10:16:12;;;;;;;69.18;53.42;;;19.00;53.40;;;;;;5007662;27;96454;-70
2022/01/18 10:18:50;;;;;;;65.53;52.85;;;18.90;53.30;;;;;;5013090;27;95151;-72
2022/01/18 10:21:29;;;;;;;71.28;53.03;;;18.90;53.60;;;;;;5002373;27;96944;-71
2022/01/18 10:24:23;;;;;;;63.65;52.65;;;19.00;53.60;;;;;;5015939;27;95451;-71
2022/01/18 10:26:54;;;;;;;63.25;52.30;;;18.90;53.60;;;;;;5011130;27;95748;-70
2022/01/18 10:29:41;;;;;;;68.00;53.72;;;18.90;53.60;;;;;;5003827;27;94942;-70
2022/01/18 10:32:21;;;;;;;63.95;53.08;;;18.90;53.60;;;;;;5007323;27;95482;-70
2022/01/18 10:37:22;;;;;;;67.73;53.43;;;19.00;53.60;;;;;;5001179;27;96583;-70
2022/01/18 10:40:12;;;;;;;67.25;53.15;;;19.00;53.60;;;;;;3968732;27;10082447;-71
2022/01/18 10:42:52;;;;;;;64.00;52.83;;;19.10;53.40;;;;;;2387345;27;10099046;-71
2022/01/18 10:45:28;;;;;;;67.35;53.33;;;19.10;53.40;;;;;;5005261;27;94385;-71
2022/01/18 10:47:57;;;;;;;65.72;54.00;;;19.10;53.30;;;;;;4997820;27;96574;-71
2022/01/18 10:50:24;;;;;;;65.93;52.47;;;19.10;53.60;;;;;;5009470;27;95115;-71
2022/01/18 10:52:52;;;;;;;66.22;53.33;;;19.00;53.50;;;;;;5005149;27;97602;-71
2022/01/18 10:55:24;;;;;;;63.47;53.17;;;19.00;53.70;;;;;;4996000;27;97015;-70
2022/01/18 10:57:51;;;;;;;65.18;52.53;;;19.10;54.30;;;;;;5000921;27;96420;-71
2022/01/18 11:00:23;;;;;;;63.67;53.30;;;19.00;53.60;;;;;;4999490;27;95023;-71
2022/01/18 11:02:53;;;;;;;60.90;52.58;;;19.10;53.70;;;;;;4999115;27;98188;-71
2022/01/18 11:05:25;;;;;;;63.47;52.88;;;19.10;53.50;;;;;;5005142;27;101236;-71
2022/01/18 11:07:52;;;;;;;62.75;52.38;;;19.10;53.90;;;;;;4999895;27;96432;-70
2022/01/18 11:10:24;;;;;;;65.80;53.00;;;19.10;54.00;;;;;;4989623;27;98562;-69
2022/01/18 11:13:07;;;;;;;63.28;52.00;;;19.10;53.50;;;;;;5008450;27;96291;-70
2022/01/18 11:15:36;;;;;;;62.30;53.20;;;19.20;53.10;;;;;;5007504;27;95411;-69
2022/01/18 11:18:06;;;;;;;61.78;52.45;;;19.20;52.90;;;;;;5009699;27;96445;-70
2022/01/18 11:20:42;;;;;;;62.83;52.80;;;19.20;52.70;;;;;;5008452;27;97313;-70
2022/01/18 11:23:08;;;;;;;64.32;53.03;;;19.20;52.70;;;;;;5002522;27;97367;-72
2022/01/18 11:25:37;;;;;;;61.80;52.15;;;19.10;52.50;;;;;;5007912;27;95557;-70
2022/01/18 11:28:04;;;;;;;63.70;53.00;;;19.20;52.60;;;;;;5014753;27;95434;-70
2022/01/18 11:30:33;;;;;;;62.47;52.50;;;19.10;52.40;;;;;;4986349;27;96304;-71
2022/01/18 11:33:01;;;;;;;59.92;51.92;;;19.10;52.30;;;;;;5006004;27;94774;-69
2022/01/18 11:35:50;;;;;;;64.72;52.25;;;19.10;52.20;;;;;;5012530;27;98853;-69
2022/01/18 11:38:25;;;;;;;63.40;53.00;;;19.10;52.10;;;;;;5009415;27;95854;-69
2022/01/18 11:40:57;;;;;;;61.13;52.35;;;19.10;52.20;;;;;;4982578;27;96833;-70
2022/01/18 11:43:41;;;;;;;61.80;52.45;;;19.10;51.90;;;;;;5009549;27;96054;-70
2022/01/18 11:46:27;;;;;;;62.88;52.90;;;19.10;51.80;;;;;;5008587;27;94721;-70
2022/01/18 11:49:17;;;;;;;61.17;51.95;;;19.00;51.90;;;;;;5009565;27;95278;-69
2022/01/18 11:51:58;;;;;;;60.55;51.78;;;19.10;52.20;;;;;;5011036;27;96312;-71
2022/01/18 11:54:56;;;;;;;62.05;52.25;;;19.20;52.20;;;;;;5009526;27;95011;-71
2022/01/18 11:57:21;;;;;;;60.85;51.75;;;19.20;51.80;;;;;;5009091;27;94768;-70
2022/01/18 11:59:49;;;;;;;61.00;52.05;;;19.30;51.60;;;;;;4990911;27;96479;-70
2022/01/18 12:02:29;;;;;;;61.17;51.92;;;19.40;51.40;;;;;;5006272;27;95502;-71
2022/01/18 12:04:57;;;;;;;61.20;52.33;;;19.50;51.20;;;;;;5011260;27;95896;-71
2022/01/18 12:08:02;;;;;;;62.85;52.72;;;19.50;51.00;;;;;;4999290;27;98189;-71
2022/01/18 12:10:31;;;;;;;63.03;52.97;;;19.60;50.60;;;;;;4972355;28;101960;-69
2022/01/18 12:13:22;;;;;;;66.30;53.80;;;19.70;50.60;;;;;;5010764;27;97218;-71
2022/01/18 12:15:50;;;;;;;66.93;52.97;;;19.80;50.30;;;;;;4967335;27;97297;-71
2022/01/18 12:18:30;;;;;;;64.95;54.05;;;19.90;50.00;;;;;;4989563;28;95535;-72
2022/01/18 12:21:06;;;;;;;63.78;53.22;;;19.90;49.80;;;;;;5007144;27;95427;-72
2022/01/18 12:23:44;;;;;;;67.28;53.78;;;20.00;49.90;;;;;;5004916;27;96488;-72
2022/01/18 12:26:41;;;;;;;65.13;53.97;;;20.10;49.60;;;;;;5011732;27;95292;-71
2022/01/18 12:29:22;;;;;;;65.60;54.03;;;20.10;49.50;;;;;;5014957;27;95669;-72
2022/01/18 12:37:08;;;;;;;64.67;54.37;;;20.20;49.40;;;;;;5006563;27;102234;-72
2022/01/18 12:39:49;;;;;;;67.20;54.43;;;20.20;49.30;;;;;;5013700;27;94762;-72
2022/01/18 12:44:20;;;;;;;65.15;53.90;;;20.20;49.30;;;;;;5011647;27;96814;-72
2022/01/18 12:45:05;;;;;;;64.20;53.60;;;20.20;49.30;;;;;;5016125;27;95847;-72
2022/01/18 12:47:30;;;;;;;66.18;54.13;;;20.10;49.30;;;;;;5009748;27;98407;-72
2022/01/18 12:49:56;;;;;;;65.32;54.33;;;20.10;49.40;;;;;;5010191;27;94963;-71
2022/01/18 12:52:22;;;;;;;68.05;53.78;;;20.10;49.30;;;;;;5016037;27;95839;-72
2022/01/18 12:54:49;;;;;;;67.18;54.30;;;20.10;49.30;;;;;;5007407;27;95777;-72
2022/01/18 12:57:16;;;;;;;66.75;53.67;;;20.00;49.30;;;;;;5016161;27;94925;-72
2022/01/18 13:00:03;;;;;;;63.42;53.15;;;20.10;49.40;;;;;;5001336;27;94820;-71
2022/01/18 13:02:28;;;;;;;66.75;54.38;;;20.00;49.50;;;;;;5008134;27;96728;-72
2022/01/18 13:05:09;;;;;;;58.28;48.77;;;20.00;49.40;;;;;;3032284;27;10100751;-71
2022/01/18 13:07:53;;;;;;;66.78;54.30;;;20.00;49.40;;;;;;2917104;27;10098075;-71
2022/01/18 13:10:32;;;;;;;66.10;53.90;;;20.00;49.60;;;;;;4999959;27;96493;-71
2022/01/18 13:12:59;;;;;;;66.20;54.28;;;20.00;49.60;;;;;;5006360;27;95253;-72
2022/01/18 13:16:06;;;;;;;66.13;54.42;;;20.00;49.20;;;;;;5009783;27;95201;-72
2022/01/18 13:27:02;;;;;;;67.60;54.78;;;19.90;49.40;;;;;;5008845;27;95578;-71
2022/01/18 13:29:29;;;;;;;66.60;54.53;;;20.00;49.10;;;;;;5011372;27;97375;-70
2022/01/18 13:32:09;;;;;;;68.90;54.92;;;20.00;49.10;;;;;;5013685;27;95908;-71
2022/01/18 13:34:41;;;;;;;69.35;55.28;;;20.10;49.10;;;;;;5013733;27;95243;-72
2022/01/18 13:37:09;;;;;;;67.75;55.13;;;20.00;49.20;;;;;;5007950;27;100404;-70
2022/01/18 13:39:46;;;;;;;67.72;55.10;;;20.00;49.30;;;;;;5002727;27;96326;-70
2022/01/18 13:42:17;;;;;;;67.38;55.50;;;20.00;49.20;;;;;;5008717;27;95068;-71
2022/01/18 13:45:02;;;;;;;;;;;20.00;49.10;;;;;;5016823;27;95309;-70
2022/01/18 13:47:37;;;;;;;66.22;54.05;;;20.00;49.00;;;;;;5011022;27;95232;-72